sensor_id;sensor_type;location;lat;lon;timestamp;temperature;humidity
21184;DHT22;18176;49.502;11.754;2023-03-14T00:00:36;8.80;99.90
21184;DHT22;18176;49.502;11.754;2023-03-14T00:04:36;8.70;99.90
21184;DHT22;18176;49.502;11.754;2023-03-14T00:08:40;8.70;99.90
21184;DHT22;18176;49.502;11.754;2023-03-14T00:12:42;8.70;99.90
21184;DHT22;18176;49.502;11.754;2023-03-14T00:16:45;8.60;99.90
21184;DHT22;18176;49.502;11.754;2023-03-14T00:20:46;8.60;99.90
21184;DHT22;18176;49.502;11.754;2023-03-14T00:24:50;8.50;99.90
21184;DHT22;18176;49.502;11.754;2023-03-14T00:28:52;8.50;99.90
21184;DHT22;18176;49.502;11.754;2023-03-14T00:32:53;8.50;99.90
21184;DHT22;18176;49.502;11.754;2023-03-14T00:36:53;8.50;99.90
21184;DHT22;18176;49.502;11.754;2023-03-14T00:40:57;8.40;99.90
21184;DHT22;18176;49.502;11.754;2023-03-14T00:44:58;8.40;99.90
21184;DHT22;18176;49.502;11.754;2023-03-14T00:48:58;8.40;99.90
21184;DHT22;18176;49.502;11.754;2023-03-14T00:52:59;8.30;99.90
21184;DHT22;18176;49.502;11.754;2023-03-14T00:57:02;8.30;99.90
21184;DHT22;18176;49.502;11.754;2023-03-14T01:01:06;8.20;99.90
21184;DHT22;18176;49.502;11.754;2023-03-14T01:05:10;8.30;99.90
21184;DHT22;18176;49.502;11.754;2023-03-14T01:09:12;8.30;99.90
21184;DHT22;18176;49.502;11.754;2023-03-14T01:13:17;8.30;99.90
21184;DHT22;18176;49.502;11.754;2023-03-14T01:17:17;8.40;99.90
21184;DHT22;18176;49.502;11.754;2023-03-14T01:21:20;8.60;99.90
21184;DHT22;18176;49.502;11.754;2023-03-14T01:25:23;8.60;99.90
21184;DHT22;18176;49.502;11.754;2023-03-14T01:29:27;8.60;99.90
21184;DHT22;18176;49.502;11.754;2023-03-14T01:33:27;8.70;99.90
21184;DHT22;18176;49.502;11.754;2023-03-14T01:37:28;8.80;99.90
21184;DHT22;18176;49.502;11.754;2023-03-14T01:41:29;8.70;99.90
21184;DHT22;18176;49.502;11.754;2023-03-14T01:50:19;8.70;99.90
21184;DHT22;18176;49.502;11.754;2023-03-14T01:54:22;8.60;99.90
21184;DHT22;18176;49.502;11.754;2023-03-14T01:58:28;8.50;99.90
21184;DHT22;18176;49.502;11.754;2023-03-14T02:02:34;8.50;99.90
21184;DHT22;18176;49.502;11.754;2023-03-14T02:06:42;8.50;99.90
21184;DHT22;18176;49.502;11.754;2023-03-14T02:10:51;8.40;99.90
21184;DHT22;18176;49.502;11.754;2023-03-14T02:15:05;8.40;99.90
21184;DHT22;18176;49.502;11.754;2023-03-14T02:24:20;8.30;99.90
21184;DHT22;18176;49.502;11.754;2023-03-14T02:28:35;8.30;99.90
21184;DHT22;18176;49.502;11.754;2023-03-14T02:32:38;8.30;99.90
21184;DHT22;18176;49.502;11.754;2023-03-14T02:36:43;8.30;99.90
21184;DHT22;18176;49.502;11.754;2023-03-14T02:40:44;8.40;99.90
21184;DHT22;18176;49.502;11.754;2023-03-14T02:44:53;8.40;99.90
21184;DHT22;18176;49.502;11.754;2023-03-14T02:49:02;8.40;99.90
21184;DHT22;18176;49.502;11.754;2023-03-14T02:53:06;8.40;99.90
21184;DHT22;18176;49.502;11.754;2023-03-14T02:57:07;8.50;99.90
21184;DHT22;18176;49.502;11.754;2023-03-14T03:01:10;8.50;99.90
21184;DHT22;18176;49.502;11.754;2023-03-14T03:05:11;8.50;99.90
21184;DHT22;18176;49.502;11.754;2023-03-14T03:09:11;8.50;99.90
21184;DHT22;18176;49.502;11.754;2023-03-14T03:13:12;8.60;99.90
21184;DHT22;18176;49.502;11.754;2023-03-14T03:17:17;8.60;99.90
21184;DHT22;18176;49.502;11.754;2023-03-14T03:21:17;8.60;99.90
21184;DHT22;18176;49.502;11.754;2023-03-14T03:25:20;8.50;99.90
21184;DHT22;18176;49.502;11.754;2023-03-14T03:29:21;8.50;99.90
21184;DHT22;18176;49.502;11.754;2023-03-14T03:33:25;8.50;99.90
21184;DHT22;18176;49.502;11.754;2023-03-14T03:37:26;8.50;99.90
21184;DHT22;18176;49.502;11.754;2023-03-14T03:41:27;8.50;99.90
21184;DHT22;18176;49.502;11.754;2023-03-14T03:45:30;8.40;99.90
21184;DHT22;18176;49.502;11.754;2023-03-14T03:49:37;8.40;99.90
21184;DHT22;18176;49.502;11.754;2023-03-14T03:53:40;8.40;99.90
21184;DHT22;18176;49.502;11.754;2023-03-14T03:57:43;8.30;99.90
21184;DHT22;18176;49.502;11.754;2023-03-14T04:01:44;8.30;99.90
21184;DHT22;18176;49.502;11.754;2023-03-14T04:05:58;8.20;99.90
21184;DHT22;18176;49.502;11.754;2023-03-14T04:10:00;8.20;99.90
21184;DHT22;18176;49.502;11.754;2023-03-14T04:14:08;8.30;99.90
21184;DHT22;18176;49.502;11.754;2023-03-14T04:18:09;8.20;99.90
21184;DHT22;18176;49.502;11.754;2023-03-14T04:22:14;8.20;99.90
21184;DHT22;18176;49.502;11.754;2023-03-14T04:26:18;8.10;99.90
21184;DHT22;18176;49.502;11.754;2023-03-14T04:30:19;8.10;99.90
21184;DHT22;18176;49.502;11.754;2023-03-14T04:34:26;8.10;99.90
21184;DHT22;18176;49.502;11.754;2023-03-14T04:38:30;8.10;99.90
21184;DHT22;18176;49.502;11.754;2023-03-14T04:42:30;8.10;99.90
21184;DHT22;18176;49.502;11.754;2023-03-14T04:46:31;8.00;99.90
21184;DHT22;18176;49.502;11.754;2023-03-14T04:50:35;8.10;99.90
21184;DHT22;18176;49.502;11.754;2023-03-14T04:54:38;8.00;99.90
21184;DHT22;18176;49.502;11.754;2023-03-14T04:58:38;7.90;99.90
21184;DHT22;18176;49.502;11.754;2023-03-14T05:02:39;7.90;99.90
21184;DHT22;18176;49.502;11.754;2023-03-14T05:06:58;7.90;99.90
21184;DHT22;18176;49.502;11.754;2023-03-14T05:11:19;7.80;99.90
21184;DHT22;18176;49.502;11.754;2023-03-14T05:15:40;7.80;99.90
21184;DHT22;18176;49.502;11.754;2023-03-14T05:19:59;7.80;99.90
21184;DHT22;18176;49.502;11.754;2023-03-14T05:24:43;7.90;99.90
21184;DHT22;18176;49.502;11.754;2023-03-14T05:29:05;7.90;99.90
21184;DHT22;18176;49.502;11.754;2023-03-14T05:33:19;7.90;99.90
21184;DHT22;18176;49.502;11.754;2023-03-14T05:37:31;7.90;99.90
21184;DHT22;18176;49.502;11.754;2023-03-14T05:41:47;7.90;99.90
21184;DHT22;18176;49.502;11.754;2023-03-14T05:46:14;7.80;99.90
21184;DHT22;18176;49.502;11.754;2023-03-14T05:50:34;7.90;99.90
21184;DHT22;18176;49.502;11.754;2023-03-14T05:54:41;7.80;99.90
21184;DHT22;18176;49.502;11.754;2023-03-14T05:59:05;7.90;99.90
21184;DHT22;18176;49.502;11.754;2023-03-14T06:03:29;7.80;99.90
21184;DHT22;18176;49.502;11.754;2023-03-14T06:07:30;7.80;99.90
21184;DHT22;18176;49.502;11.754;2023-03-14T06:11:31;7.80;99.90
21184;DHT22;18176;49.502;11.754;2023-03-14T06:15:34;7.90;99.90
21184;DHT22;18176;49.502;11.754;2023-03-14T06:19:37;8.00;99.90
21184;DHT22;18176;49.502;11.754;2023-03-14T06:23:42;8.10;99.90
21184;DHT22;18176;49.502;11.754;2023-03-14T06:27:43;8.10;99.90
21184;DHT22;18176;49.502;11.754;2023-03-14T06:31:44;8.00;99.90
21184;DHT22;18176;49.502;11.754;2023-03-14T06:35:50;8.10;99.90
21184;DHT22;18176;49.502;11.754;2023-03-14T06:39:50;8.10;99.90
21184;DHT22;18176;49.502;11.754;2023-03-14T06:44:09;8.10;99.90
21184;DHT22;18176;49.502;11.754;2023-03-14T06:48:10;8.20;99.90
21184;DHT22;18176;49.502;11.754;2023-03-14T06:52:21;8.20;99.90
21184;DHT22;18176;49.502;11.754;2023-03-14T06:56:21;8.20;99.90
21184;DHT22;18176;49.502;11.754;2023-03-14T07:00:23;8.30;99.90
21184;DHT22;18176;49.502;11.754;2023-03-14T07:04:26;8.40;99.90
21184;DHT22;18176;49.502;11.754;2023-03-14T07:08:32;8.40;99.90
21184;DHT22;18176;49.502;11.754;2023-03-14T07:12:33;8.40;99.90
21184;DHT22;18176;49.502;11.754;2023-03-14T07:16:34;8.50;99.90
21184;DHT22;18176;49.502;11.754;2023-03-14T07:20:36;8.60;99.90
21184;DHT22;18176;49.502;11.754;2023-03-14T07:24:40;8.80;99.90
21184;DHT22;18176;49.502;11.754;2023-03-14T07:28:41;9.00;99.90
21184;DHT22;18176;49.502;11.754;2023-03-14T07:32:46;9.20;99.90
21184;DHT22;18176;49.502;11.754;2023-03-14T07:36:49;9.30;99.90
21184;DHT22;18176;49.502;11.754;2023-03-14T07:40:57;9.80;99.90
21184;DHT22;18176;49.502;11.754;2023-03-14T07:45:01;9.90;99.90
21184;DHT22;18176;49.502;11.754;2023-03-14T07:49:01;10.00;99.90
21184;DHT22;18176;49.502;11.754;2023-03-14T07:53:02;9.90;99.90
21184;DHT22;18176;49.502;11.754;2023-03-14T07:57:06;9.80;99.90
21184;DHT22;18176;49.502;11.754;2023-03-14T08:01:10;9.70;99.90
21184;DHT22;18176;49.502;11.754;2023-03-14T08:05:13;9.60;99.90
21184;DHT22;18176;49.502;11.754;2023-03-14T08:09:14;9.50;99.90
21184;DHT22;18176;49.502;11.754;2023-03-14T08:13:17;9.60;99.90
21184;DHT22;18176;49.502;11.754;2023-03-14T08:17:18;9.70;99.90
21184;DHT22;18176;49.502;11.754;2023-03-14T08:21:19;9.80;99.90
21184;DHT22;18176;49.502;11.754;2023-03-14T08:25:19;9.90;99.90
21184;DHT22;18176;49.502;11.754;2023-03-14T08:29:23;9.90;99.90
21184;DHT22;18176;49.502;11.754;2023-03-14T08:33:23;10.00;99.90
21184;DHT22;18176;49.502;11.754;2023-03-14T08:37:25;10.00;99.90
21184;DHT22;18176;49.502;11.754;2023-03-14T08:41:25;10.00;99.90
21184;DHT22;18176;49.502;11.754;2023-03-14T08:45:28;10.00;99.90
21184;DHT22;18176;49.502;11.754;2023-03-14T08:49:29;10.20;99.90
21184;DHT22;18176;49.502;11.754;2023-03-14T08:53:29;10.20;99.90
21184;DHT22;18176;49.502;11.754;2023-03-14T08:57:29;10.30;99.90
21184;DHT22;18176;49.502;11.754;2023-03-14T09:01:33;10.40;99.90
21184;DHT22;18176;49.502;11.754;2023-03-14T09:05:33;10.60;99.90
21184;DHT22;18176;49.502;11.754;2023-03-14T09:09:34;10.60;99.90
21184;DHT22;18176;49.502;11.754;2023-03-14T09:13:34;10.60;99.90
21184;DHT22;18176;49.502;11.754;2023-03-14T09:17:37;10.60;99.90
21184;DHT22;18176;49.502;11.754;2023-03-14T09:21:38;10.60;99.90
21184;DHT22;18176;49.502;11.754;2023-03-14T09:25:38;10.70;99.90
21184;DHT22;18176;49.502;11.754;2023-03-14T09:29:38;10.90;99.90
21184;DHT22;18176;49.502;11.754;2023-03-14T09:33:41;11.10;99.90
21184;DHT22;18176;49.502;11.754;2023-03-14T09:37:42;11.40;99.90
21184;DHT22;18176;49.502;11.754;2023-03-14T09:41:45;11.50;99.90
21184;DHT22;18176;49.502;11.754;2023-03-14T09:45:48;11.40;99.90
21184;DHT22;18176;49.502;11.754;2023-03-14T09:49:57;11.40;99.90
21184;DHT22;18176;49.502;11.754;2023-03-14T09:54:00;11.40;99.90
21184;DHT22;18176;49.502;11.754;2023-03-14T09:58:05;11.30;99.90
21184;DHT22;18176;49.502;11.754;2023-03-14T10:02:20;11.50;99.90
21184;DHT22;18176;49.502;11.754;2023-03-14T10:06:30;12.70;99.90
21184;DHT22;18176;49.502;11.754;2023-03-14T10:10:32;13.30;99.90
21184;DHT22;18176;49.502;11.754;2023-03-14T10:14:34;13.10;99.90
21184;DHT22;18176;49.502;11.754;2023-03-14T10:18:36;13.40;99.90
21184;DHT22;18176;49.502;11.754;2023-03-14T10:22:40;13.30;99.90
21184;DHT22;18176;49.502;11.754;2023-03-14T10:26:41;13.20;99.90
21184;DHT22;18176;49.502;11.754;2023-03-14T10:30:44;13.00;99.90
21184;DHT22;18176;49.502;11.754;2023-03-14T10:35:04;12.50;99.90
21184;DHT22;18176;49.502;11.754;2023-03-14T10:39:27;12.20;99.90
21184;DHT22;18176;49.502;11.754;2023-03-14T10:43:36;12.00;99.90
21184;DHT22;18176;49.502;11.754;2023-03-14T10:47:48;11.90;99.90
21184;DHT22;18176;49.502;11.754;2023-03-14T10:51:49;11.70;99.90
21184;DHT22;18176;49.502;11.754;2023-03-14T10:55:56;11.50;99.90
21184;DHT22;18176;49.502;11.754;2023-03-14T10:59:59;11.30;99.90
21184;DHT22;18176;49.502;11.754;2023-03-14T11:04:16;11.30;99.90
21184;DHT22;18176;49.502;11.754;2023-03-14T11:08:33;11.70;99.90
21184;DHT22;18176;49.502;11.754;2023-03-14T11:12:56;12.30;99.90
21184;DHT22;18176;49.502;11.754;2023-03-14T11:17:16;12.50;99.90
21184;DHT22;18176;49.502;11.754;2023-03-14T11:21:29;12.70;99.90
21184;DHT22;18176;49.502;11.754;2023-03-14T11:25:42;12.80;99.90
21184;DHT22;18176;49.502;11.754;2023-03-14T11:29:55;13.00;99.90
21184;DHT22;18176;49.502;11.754;2023-03-14T11:34:03;12.90;99.90
21184;DHT22;18176;49.502;11.754;2023-03-14T11:38:23;12.70;99.90
21184;DHT22;18176;49.502;11.754;2023-03-14T11:42:29;12.40;99.90
21184;DHT22;18176;49.502;11.754;2023-03-14T11:46:38;12.20;99.90
21184;DHT22;18176;49.502;11.754;2023-03-14T11:50:43;12.20;99.90
21184;DHT22;18176;49.502;11.754;2023-03-14T11:54:50;11.90;99.90
21184;DHT22;18176;49.502;11.754;2023-03-14T11:58:58;11.80;99.90
21184;DHT22;18176;49.502;11.754;2023-03-14T12:03:11;11.70;99.90
21184;DHT22;18176;49.502;11.754;2023-03-14T12:07:21;11.40;99.90
21184;DHT22;18176;49.502;11.754;2023-03-14T12:11:39;11.20;99.90
21184;DHT22;18176;49.502;11.754;2023-03-14T12:15:48;10.80;99.90
21184;DHT22;18176;49.502;11.754;2023-03-14T12:20:05;10.50;99.90
21184;DHT22;18176;49.502;11.754;2023-03-14T12:24:21;10.40;99.90
21184;DHT22;18176;49.502;11.754;2023-03-14T12:28:31;10.30;99.90
21184;DHT22;18176;49.502;11.754;2023-03-14T12:32:32;10.70;99.90
21184;DHT22;18176;49.502;11.754;2023-03-14T12:37:14;11.60;99.90
21184;DHT22;18176;49.502;11.754;2023-03-14T12:41:28;12.90;99.90
21184;DHT22;18176;49.502;11.754;2023-03-14T12:45:37;14.20;99.90
21184;DHT22;18176;49.502;11.754;2023-03-14T12:49:41;14.20;99.90
21184;DHT22;18176;49.502;11.754;2023-03-14T12:54:24;13.30;99.90
21184;DHT22;18176;49.502;11.754;2023-03-14T12:58:41;13.20;99.90
21184;DHT22;18176;49.502;11.754;2023-03-14T13:02:50;12.90;99.90
21184;DHT22;18176;49.502;11.754;2023-03-14T13:06:56;12.50;99.90
21184;DHT22;18176;49.502;11.754;2023-03-14T13:11:04;12.30;99.90
21184;DHT22;18176;49.502;11.754;2023-03-14T13:15:18;12.10;99.90
21184;DHT22;18176;49.502;11.754;2023-03-14T13:19:25;12.20;99.90
21184;DHT22;18176;49.502;11.754;2023-03-14T13:23:29;12.30;99.90
21184;DHT22;18176;49.502;11.754;2023-03-14T13:27:38;12.40;99.90
21184;DHT22;18176;49.502;11.754;2023-03-14T13:31:43;12.80;99.90
21184;DHT22;18176;49.502;11.754;2023-03-14T13:35:47;12.70;99.90
21184;DHT22;18176;49.502;11.754;2023-03-14T13:39:51;12.50;99.90
21184;DHT22;18176;49.502;11.754;2023-03-14T13:44:00;12.40;99.90
21184;DHT22;18176;49.502;11.754;2023-03-14T13:48:07;12.30;99.90
21184;DHT22;18176;49.502;11.754;2023-03-14T13:52:28;12.30;99.90
21184;DHT22;18176;49.502;11.754;2023-03-14T13:56:32;12.10;99.90
21184;DHT22;18176;49.502;11.754;2023-03-14T14:00:41;11.20;99.90
21184;DHT22;18176;49.502;11.754;2023-03-14T14:04:44;9.60;99.90
21184;DHT22;18176;49.502;11.754;2023-03-14T14:08:49;9.10;99.90
21184;DHT22;18176;49.502;11.754;2023-03-14T14:12:55;9.00;99.90
21184;DHT22;18176;49.502;11.754;2023-03-14T14:17:00;9.00;99.90
21184;DHT22;18176;49.502;11.754;2023-03-14T14:21:04;8.80;99.90
21184;DHT22;18176;49.502;11.754;2023-03-14T14:25:12;8.70;99.90
21184;DHT22;18176;49.502;11.754;2023-03-14T14:29:25;8.60;99.90
21184;DHT22;18176;49.502;11.754;2023-03-14T14:33:38;8.60;99.90
21184;DHT22;18176;49.502;11.754;2023-03-14T14:37:42;8.50;99.90
21184;DHT22;18176;49.502;11.754;2023-03-14T14:41:44;8.40;99.90
21184;DHT22;18176;49.502;11.754;2023-03-14T14:45:49;8.30;99.90
21184;DHT22;18176;49.502;11.754;2023-03-14T14:49:58;8.30;99.90
21184;DHT22;18176;49.502;11.754;2023-03-14T14:54:03;8.30;99.90
21184;DHT22;18176;49.502;11.754;2023-03-14T14:58:19;8.20;99.90
21184;DHT22;18176;49.502;11.754;2023-03-14T15:02:32;8.30;99.90
21184;DHT22;18176;49.502;11.754;2023-03-14T15:06:49;8.30;99.90
21184;DHT22;18176;49.502;11.754;2023-03-14T15:10:51;8.20;99.90
21184;DHT22;18176;49.502;11.754;2023-03-14T15:14:52;8.20;99.90
21184;DHT22;18176;49.502;11.754;2023-03-14T15:18:56;8.20;99.90
21184;DHT22;18176;49.502;11.754;2023-03-14T15:23:15;7.90;99.90
21184;DHT22;18176;49.502;11.754;2023-03-14T15:27:18;7.60;99.90
21184;DHT22;18176;49.502;11.754;2023-03-14T15:31:19;7.30;99.90
21184;DHT22;18176;49.502;11.754;2023-03-14T15:35:21;7.00;99.90
21184;DHT22;18176;49.502;11.754;2023-03-14T15:39:24;6.80;99.90
21184;DHT22;18176;49.502;11.754;2023-03-14T15:43:24;6.60;99.90
21184;DHT22;18176;49.502;11.754;2023-03-14T15:47:25;6.50;99.90
21184;DHT22;18176;49.502;11.754;2023-03-14T15:51:25;6.40;99.90
21184;DHT22;18176;49.502;11.754;2023-03-14T15:55:29;6.40;99.90
21184;DHT22;18176;49.502;11.754;2023-03-14T15:59:32;6.30;99.90
21184;DHT22;18176;49.502;11.754;2023-03-14T16:03:35;6.10;99.90
21184;DHT22;18176;49.502;11.754;2023-03-14T16:07:39;6.00;99.90
21184;DHT22;18176;49.502;11.754;2023-03-14T16:11:46;5.90;99.90
21184;DHT22;18176;49.502;11.754;2023-03-14T16:15:53;5.80;99.90
21184;DHT22;18176;49.502;11.754;2023-03-14T16:19:55;5.80;99.90
21184;DHT22;18176;49.502;11.754;2023-03-14T16:23:55;5.70;99.90
21184;DHT22;18176;49.502;11.754;2023-03-14T16:27:59;5.70;99.90
21184;DHT22;18176;49.502;11.754;2023-03-14T16:32:07;5.60;99.90
21184;DHT22;18176;49.502;11.754;2023-03-14T16:36:10;5.60;99.90
21184;DHT22;18176;49.502;11.754;2023-03-14T16:40:12;5.50;99.90
21184;DHT22;18176;49.502;11.754;2023-03-14T16:44:16;5.40;99.90
21184;DHT22;18176;49.502;11.754;2023-03-14T16:48:16;5.40;99.90
21184;DHT22;18176;49.502;11.754;2023-03-14T16:52:19;5.30;99.90
21184;DHT22;18176;49.502;11.754;2023-03-14T16:56:19;5.30;99.90
21184;DHT22;18176;49.502;11.754;2023-03-14T17:00:22;5.30;99.90
21184;DHT22;18176;49.502;11.754;2023-03-14T17:04:23;5.30;99.90
21184;DHT22;18176;49.502;11.754;2023-03-14T17:08:23;5.30;99.90
21184;DHT22;18176;49.502;11.754;2023-03-14T17:12:24;5.30;99.90
21184;DHT22;18176;49.502;11.754;2023-03-14T17:16:28;5.30;99.90
21184;DHT22;18176;49.502;11.754;2023-03-14T17:20:31;5.30;99.90
21184;DHT22;18176;49.502;11.754;2023-03-14T17:24:31;5.20;99.90
21184;DHT22;18176;49.502;11.754;2023-03-14T17:28:33;5.10;99.90
21184;DHT22;18176;49.502;11.754;2023-03-14T17:32:36;5.10;99.90
21184;DHT22;18176;49.502;11.754;2023-03-14T17:36:37;5.10;99.90
21184;DHT22;18176;49.502;11.754;2023-03-14T17:40:37;5.20;99.90
21184;DHT22;18176;49.502;11.754;2023-03-14T17:44:37;5.10;99.90
21184;DHT22;18176;49.502;11.754;2023-03-14T17:48:42;5.00;99.90
21184;DHT22;18176;49.502;11.754;2023-03-14T17:52:43;5.00;99.90
21184;DHT22;18176;49.502;11.754;2023-03-14T17:56:44;5.00;99.90
21184;DHT22;18176;49.502;11.754;2023-03-14T18:00:46;5.00;99.90
21184;DHT22;18176;49.502;11.754;2023-03-14T18:04:51;5.00;99.90
21184;DHT22;18176;49.502;11.754;2023-03-14T18:08:54;5.00;99.90
21184;DHT22;18176;49.502;11.754;2023-03-14T18:12:56;4.90;99.90
21184;DHT22;18176;49.502;11.754;2023-03-14T18:16:58;4.70;99.90
21184;DHT22;18176;49.502;11.754;2023-03-14T18:21:03;4.50;99.90
21184;DHT22;18176;49.502;11.754;2023-03-14T18:25:07;4.30;99.90
21184;DHT22;18176;49.502;11.754;2023-03-14T18:29:11;4.20;99.90
21184;DHT22;18176;49.502;11.754;2023-03-14T18:33:13;4.20;99.90
21184;DHT22;18176;49.502;11.754;2023-03-14T18:37:19;4.10;99.90
21184;DHT22;18176;49.502;11.754;2023-03-14T18:41:22;4.10;99.90
21184;DHT22;18176;49.502;11.754;2023-03-14T18:45:27;4.10;99.90
21184;DHT22;18176;49.502;11.754;2023-03-14T18:49:30;4.00;99.90
21184;DHT22;18176;49.502;11.754;2023-03-14T18:53:35;4.10;99.90
21184;DHT22;18176;49.502;11.754;2023-03-14T18:57:39;4.00;99.90
21184;DHT22;18176;49.502;11.754;2023-03-14T19:01:42;4.10;99.90
21184;DHT22;18176;49.502;11.754;2023-03-14T19:05:48;4.10;99.90
21184;DHT22;18176;49.502;11.754;2023-03-14T19:09:53;4.10;99.90
21184;DHT22;18176;49.502;11.754;2023-03-14T19:13:56;4.20;99.90
21184;DHT22;18176;49.502;11.754;2023-03-14T19:17:58;4.20;99.90
21184;DHT22;18176;49.502;11.754;2023-03-14T19:22:01;4.30;99.90
21184;DHT22;18176;49.502;11.754;2023-03-14T19:26:07;4.20;99.90
21184;DHT22;18176;49.502;11.754;2023-03-14T19:30:13;4.20;99.90
21184;DHT22;18176;49.502;11.754;2023-03-14T19:34:16;4.20;99.90
21184;DHT22;18176;49.502;11.754;2023-03-14T19:38:18;4.20;99.90
21184;DHT22;18176;49.502;11.754;2023-03-14T19:42:23;4.20;99.90
21184;DHT22;18176;49.502;11.754;2023-03-14T19:46:27;4.20;99.90
21184;DHT22;18176;49.502;11.754;2023-03-14T19:50:32;4.20;99.90
21184;DHT22;18176;49.502;11.754;2023-03-14T19:54:35;4.30;99.90
21184;DHT22;18176;49.502;11.754;2023-03-14T19:58:42;4.20;99.90
21184;DHT22;18176;49.502;11.754;2023-03-14T20:02:44;4.10;99.90
21184;DHT22;18176;49.502;11.754;2023-03-14T20:06:45;4.00;99.90
21184;DHT22;18176;49.502;11.754;2023-03-14T20:10:46;3.70;99.90
21184;DHT22;18176;49.502;11.754;2023-03-14T20:14:51;3.40;99.90
21184;DHT22;18176;49.502;11.754;2023-03-14T20:18:52;3.20;99.90
21184;DHT22;18176;49.502;11.754;2023-03-14T20:22:52;3.00;99.90
21184;DHT22;18176;49.502;11.754;2023-03-14T20:26:53;2.90;99.90
21184;DHT22;18176;49.502;11.754;2023-03-14T20:30:57;2.80;99.90
21184;DHT22;18176;49.502;11.754;2023-03-14T20:34:57;2.80;99.90
21184;DHT22;18176;49.502;11.754;2023-03-14T20:38:58;2.80;99.90
21184;DHT22;18176;49.502;11.754;2023-03-14T20:42:59;2.80;99.90
21184;DHT22;18176;49.502;11.754;2023-03-14T20:47:03;2.70;99.90
21184;DHT22;18176;49.502;11.754;2023-03-14T20:51:04;2.70;99.90
21184;DHT22;18176;49.502;11.754;2023-03-14T20:55:06;2.70;99.90
21184;DHT22;18176;49.502;11.754;2023-03-14T20:59:07;2.70;99.90
21184;DHT22;18176;49.502;11.754;2023-03-14T21:03:10;2.70;99.90
21184;DHT22;18176;49.502;11.754;2023-03-14T21:07:11;2.80;99.90
21184;DHT22;18176;49.502;11.754;2023-03-14T21:11:12;2.80;99.90
21184;DHT22;18176;49.502;11.754;2023-03-14T21:15:16;2.80;99.90
21184;DHT22;18176;49.502;11.754;2023-03-14T21:19:21;2.90;99.90
21184;DHT22;18176;49.502;11.754;2023-03-14T21:23:26;2.90;99.90
21184;DHT22;18176;49.502;11.754;2023-03-14T21:27:30;2.80;99.90
21184;DHT22;18176;49.502;11.754;2023-03-14T21:31:33;2.80;99.90
21184;DHT22;18176;49.502;11.754;2023-03-14T21:35:36;2.80;99.90
21184;DHT22;18176;49.502;11.754;2023-03-14T21:39:37;2.80;99.90
21184;DHT22;18176;49.502;11.754;2023-03-14T21:43:38;2.80;99.90
21184;DHT22;18176;49.502;11.754;2023-03-14T21:47:40;2.80;99.90
21184;DHT22;18176;49.502;11.754;2023-03-14T21:51:46;2.80;99.90
21184;DHT22;18176;49.502;11.754;2023-03-14T21:55:48;2.80;99.90
21184;DHT22;18176;49.502;11.754;2023-03-14T21:59:51;2.60;99.90
21184;DHT22;18176;49.502;11.754;2023-03-14T22:03:52;2.40;99.90
21184;DHT22;18176;49.502;11.754;2023-03-14T22:07:55;2.30;99.90
21184;DHT22;18176;49.502;11.754;2023-03-14T22:11:56;2.30;99.90
21184;DHT22;18176;49.502;11.754;2023-03-14T22:15:57;2.20;99.90
21184;DHT22;18176;49.502;11.754;2023-03-14T22:19:57;2.00;99.90
21184;DHT22;18176;49.502;11.754;2023-03-14T22:24:03;1.80;99.90
21184;DHT22;18176;49.502;11.754;2023-03-14T22:28:04;1.50;99.90
21184;DHT22;18176;49.502;11.754;2023-03-14T22:32:05;1.20;99.90
21184;DHT22;18176;49.502;11.754;2023-03-14T22:36:08;1.10;99.90
21184;DHT22;18176;49.502;11.754;2023-03-14T22:40:12;0.90;99.90
21184;DHT22;18176;49.502;11.754;2023-03-14T22:44:13;0.80;99.90
21184;DHT22;18176;49.502;11.754;2023-03-14T22:48:13;0.70;99.90
21184;DHT22;18176;49.502;11.754;2023-03-14T22:52:14;0.70;99.90
21184;DHT22;18176;49.502;11.754;2023-03-14T22:56:18;0.70;99.90
21184;DHT22;18176;49.502;11.754;2023-03-14T23:00:20;0.70;99.90
21184;DHT22;18176;49.502;11.754;2023-03-14T23:04:24;0.70;99.90
21184;DHT22;18176;49.502;11.754;2023-03-14T23:08:27;0.80;99.90
21184;DHT22;18176;49.502;11.754;2023-03-14T23:12:33;0.80;99.90
21184;DHT22;18176;49.502;11.754;2023-03-14T23:16:37;0.80;99.90
21184;DHT22;18176;49.502;11.754;2023-03-14T23:20:41;0.80;99.90
21184;DHT22;18176;49.502;11.754;2023-03-14T23:24:44;0.80;99.90
21184;DHT22;18176;49.502;11.754;2023-03-14T23:28:49;0.80;99.90
21184;DHT22;18176;49.502;11.754;2023-03-14T23:32:50;0.90;99.90
21184;DHT22;18176;49.502;11.754;2023-03-14T23:36:50;0.90;99.90
21184;DHT22;18176;49.502;11.754;2023-03-14T23:40:52;0.90;99.90
21184;DHT22;18176;49.502;11.754;2023-03-14T23:44:55;0.90;99.90
21184;DHT22;18176;49.502;11.754;2023-03-14T23:48:56;0.90;99.90
21184;DHT22;18176;49.502;11.754;2023-03-14T23:52:56;0.90;99.90
21184;DHT22;18176;49.502;11.754;2023-03-14T23:56:57;1.00;99.90
